sensor_id;sensor_type;location;lat;lon;timestamp;P1;durP1;ratioP1;P2;durP2;ratioP2
70733;SDS011;58320;48.804;9.252;2022-12-20T00:01:32;25.10;;;13.40;;
70733;SDS011;58320;48.804;9.252;2022-12-20T00:04:02;28.88;;;14.82;;
70733;SDS011;58320;48.804;9.252;2022-12-20T00:06:29;28.25;;;16.63;;
70733;SDS011;58320;48.804;9.252;2022-12-20T00:08:56;29.58;;;15.48;;
70733;SDS011;58320;48.804;9.252;2022-12-20T00:11:24;25.25;;;14.52;;
70733;SDS011;58320;48.804;9.252;2022-12-20T00:13:52;29.77;;;15.40;;
70733;SDS011;58320;48.804;9.252;2022-12-20T00:16:19;28.98;;;14.85;;
70733;SDS011;58320;48.804;9.252;2022-12-20T00:18:50;24.15;;;13.93;;
70733;SDS011;58320;48.804;9.252;2022-12-20T00:21:22;25.85;;;13.90;;
70733;SDS011;58320;48.804;9.252;2022-12-20T00:23:48;24.05;;;13.80;;
70733;SDS011;58320;48.804;9.252;2022-12-20T00:26:17;24.60;;;13.67;;
70733;SDS011;58320;48.804;9.252;2022-12-20T00:28:46;25.25;;;13.18;;
70733;SDS011;58320;48.804;9.252;2022-12-20T00:31:12;26.17;;;14.20;;
70733;SDS011;58320;48.804;9.252;2022-12-20T00:33:40;26.77;;;15.00;;
70733;SDS011;58320;48.804;9.252;2022-12-20T00:36:11;27.95;;;15.95;;
70733;SDS011;58320;48.804;9.252;2022-12-20T00:38:37;27.73;;;14.57;;
70733;SDS011;58320;48.804;9.252;2022-12-20T00:41:04;29.98;;;17.80;;
70733;SDS011;58320;48.804;9.252;2022-12-20T00:43:36;28.92;;;16.70;;
70733;SDS011;58320;48.804;9.252;2022-12-20T00:46:03;29.52;;;16.95;;
70733;SDS011;58320;48.804;9.252;2022-12-20T00:48:30;31.07;;;16.60;;
70733;SDS011;58320;48.804;9.252;2022-12-20T00:51:01;33.35;;;17.52;;
70733;SDS011;58320;48.804;9.252;2022-12-20T00:53:33;29.63;;;16.20;;
70733;SDS011;58320;48.804;9.252;2022-12-20T00:56:00;32.28;;;17.08;;
70733;SDS011;58320;48.804;9.252;2022-12-20T00:58:27;29.38;;;17.20;;
70733;SDS011;58320;48.804;9.252;2022-12-20T01:00:53;30.37;;;17.33;;
70733;SDS011;58320;48.804;9.252;2022-12-20T01:03:20;30.58;;;16.42;;
70733;SDS011;58320;48.804;9.252;2022-12-20T01:05:52;31.55;;;15.35;;
70733;SDS011;58320;48.804;9.252;2022-12-20T01:08:26;27.83;;;15.20;;
70733;SDS011;58320;48.804;9.252;2022-12-20T01:11:01;27.23;;;15.25;;
70733;SDS011;58320;48.804;9.252;2022-12-20T01:13:33;31.50;;;15.93;;
70733;SDS011;58320;48.804;9.252;2022-12-20T01:16:03;28.80;;;15.48;;
70733;SDS011;58320;48.804;9.252;2022-12-20T01:18:30;34.30;;;17.95;;
70733;SDS011;58320;48.804;9.252;2022-12-20T01:21:07;30.70;;;16.83;;
70733;SDS011;58320;48.804;9.252;2022-12-20T01:23:36;33.60;;;15.67;;
70733;SDS011;58320;48.804;9.252;2022-12-20T01:26:03;33.30;;;18.38;;
70733;SDS011;58320;48.804;9.252;2022-12-20T01:28:33;35.28;;;18.25;;
70733;SDS011;58320;48.804;9.252;2022-12-20T01:31:00;31.33;;;17.23;;
70733;SDS011;58320;48.804;9.252;2022-12-20T01:33:26;32.00;;;17.67;;
70733;SDS011;58320;48.804;9.252;2022-12-20T01:35:56;31.70;;;17.20;;
70733;SDS011;58320;48.804;9.252;2022-12-20T01:38:27;27.85;;;16.17;;
70733;SDS011;58320;48.804;9.252;2022-12-20T01:40:54;31.15;;;15.02;;
70733;SDS011;58320;48.804;9.252;2022-12-20T01:43:21;29.15;;;16.65;;
70733;SDS011;58320;48.804;9.252;2022-12-20T01:45:47;30.27;;;16.47;;
70733;SDS011;58320;48.804;9.252;2022-12-20T01:48:15;31.45;;;17.50;;
70733;SDS011;58320;48.804;9.252;2022-12-20T01:50:48;34.50;;;17.65;;
70733;SDS011;58320;48.804;9.252;2022-12-20T01:53:15;30.00;;;17.10;;
70733;SDS011;58320;48.804;9.252;2022-12-20T01:55:45;35.67;;;18.05;;
70733;SDS011;58320;48.804;9.252;2022-12-20T01:58:12;33.03;;;16.67;;
70733;SDS011;58320;48.804;9.252;2022-12-20T02:00:40;34.67;;;18.25;;
70733;SDS011;58320;48.804;9.252;2022-12-20T02:03:07;29.30;;;16.33;;
70733;SDS011;58320;48.804;9.252;2022-12-20T02:05:38;35.10;;;18.33;;
70733;SDS011;58320;48.804;9.252;2022-12-20T02:08:08;33.75;;;17.50;;
70733;SDS011;58320;48.804;9.252;2022-12-20T02:10:45;34.00;;;16.27;;
70733;SDS011;58320;48.804;9.252;2022-12-20T02:16:24;33.42;;;16.50;;
70733;SDS011;58320;48.804;9.252;2022-12-20T02:18:58;31.23;;;15.18;;
70733;SDS011;58320;48.804;9.252;2022-12-20T02:21:41;32.85;;;17.83;;
70733;SDS011;58320;48.804;9.252;2022-12-20T02:24:26;33.07;;;17.37;;
70733;SDS011;58320;48.804;9.252;2022-12-20T02:27:14;36.92;;;18.17;;
70733;SDS011;58320;48.804;9.252;2022-12-20T02:30:10;30.90;;;16.58;;
70733;SDS011;58320;48.804;9.252;2022-12-20T02:32:59;33.40;;;15.50;;
70733;SDS011;58320;48.804;9.252;2022-12-20T02:35:33;29.55;;;17.13;;
70733;SDS011;58320;48.804;9.252;2022-12-20T02:38:01;32.50;;;16.77;;
70733;SDS011;58320;48.804;9.252;2022-12-20T02:40:50;31.50;;;16.05;;
70733;SDS011;58320;48.804;9.252;2022-12-20T02:43:31;35.13;;;17.95;;
70733;SDS011;58320;48.804;9.252;2022-12-20T02:46:19;31.67;;;15.70;;
70733;SDS011;58320;48.804;9.252;2022-12-20T02:48:46;33.70;;;16.55;;
70733;SDS011;58320;48.804;9.252;2022-12-20T02:51:15;29.53;;;16.20;;
70733;SDS011;58320;48.804;9.252;2022-12-20T02:53:44;28.33;;;16.52;;
70733;SDS011;58320;48.804;9.252;2022-12-20T02:56:12;30.40;;;16.98;;
70733;SDS011;58320;48.804;9.252;2022-12-20T03:01:23;31.65;;;16.17;;
70733;SDS011;58320;48.804;9.252;2022-12-20T03:04:05;27.43;;;14.00;;
70733;SDS011;58320;48.804;9.252;2022-12-20T03:06:32;24.42;;;13.25;;
70733;SDS011;58320;48.804;9.252;2022-12-20T03:08:58;23.83;;;14.07;;
70733;SDS011;58320;48.804;9.252;2022-12-20T03:11:24;23.55;;;12.85;;
70733;SDS011;58320;48.804;9.252;2022-12-20T03:13:50;24.07;;;12.83;;
70733;SDS011;58320;48.804;9.252;2022-12-20T03:16:15;24.65;;;12.90;;
70733;SDS011;58320;48.804;9.252;2022-12-20T03:18:41;19.92;;;11.95;;
70733;SDS011;58320;48.804;9.252;2022-12-20T03:21:09;20.30;;;11.77;;
70733;SDS011;58320;48.804;9.252;2022-12-20T03:23:35;21.25;;;11.43;;
70733;SDS011;58320;48.804;9.252;2022-12-20T03:26:00;18.33;;;10.40;;
70733;SDS011;58320;48.804;9.252;2022-12-20T03:28:26;17.50;;;9.77;;
70733;SDS011;58320;48.804;9.252;2022-12-20T03:30:52;15.65;;;9.35;;
70733;SDS011;58320;48.804;9.252;2022-12-20T03:33:18;18.10;;;10.27;;
70733;SDS011;58320;48.804;9.252;2022-12-20T03:35:43;16.83;;;9.80;;
70733;SDS011;58320;48.804;9.252;2022-12-20T03:38:11;14.95;;;8.07;;
70733;SDS011;58320;48.804;9.252;2022-12-20T03:40:37;17.43;;;9.70;;
70733;SDS011;58320;48.804;9.252;2022-12-20T03:43:02;16.38;;;9.77;;
70733;SDS011;58320;48.804;9.252;2022-12-20T03:45:28;16.55;;;9.07;;
70733;SDS011;58320;48.804;9.252;2022-12-20T03:47:54;17.00;;;9.63;;
70733;SDS011;58320;48.804;9.252;2022-12-20T03:50:20;16.52;;;8.90;;
70733;SDS011;58320;48.804;9.252;2022-12-20T03:52:46;17.45;;;9.23;;
70733;SDS011;58320;48.804;9.252;2022-12-20T03:55:12;16.70;;;9.43;;
70733;SDS011;58320;48.804;9.252;2022-12-20T03:57:38;17.13;;;9.77;;
70733;SDS011;58320;48.804;9.252;2022-12-20T04:00:04;15.55;;;9.25;;
70733;SDS011;58320;48.804;9.252;2022-12-20T04:02:31;19.07;;;10.87;;
70733;SDS011;58320;48.804;9.252;2022-12-20T04:04:56;20.60;;;11.95;;
70733;SDS011;58320;48.804;9.252;2022-12-20T04:07:22;24.23;;;12.50;;
70733;SDS011;58320;48.804;9.252;2022-12-20T04:09:48;20.80;;;10.77;;
70733;SDS011;58320;48.804;9.252;2022-12-20T04:12:14;16.85;;;10.13;;
70733;SDS011;58320;48.804;9.252;2022-12-20T04:14:39;16.70;;;10.03;;
70733;SDS011;58320;48.804;9.252;2022-12-20T04:17:05;17.45;;;9.07;;
70733;SDS011;58320;48.804;9.252;2022-12-20T04:19:31;17.65;;;9.80;;
70733;SDS011;58320;48.804;9.252;2022-12-20T04:21:57;17.83;;;9.70;;
70733;SDS011;58320;48.804;9.252;2022-12-20T04:24:23;15.48;;;9.23;;
70733;SDS011;58320;48.804;9.252;2022-12-20T04:26:49;15.88;;;9.23;;
70733;SDS011;58320;48.804;9.252;2022-12-20T04:29:15;16.27;;;9.40;;
70733;SDS011;58320;48.804;9.252;2022-12-20T04:31:40;15.55;;;8.38;;
70733;SDS011;58320;48.804;9.252;2022-12-20T04:34:06;15.32;;;8.68;;
70733;SDS011;58320;48.804;9.252;2022-12-20T04:36:32;15.73;;;8.90;;
70733;SDS011;58320;48.804;9.252;2022-12-20T04:38:58;17.80;;;9.73;;
70733;SDS011;58320;48.804;9.252;2022-12-20T04:41:24;19.85;;;11.00;;
70733;SDS011;58320;48.804;9.252;2022-12-20T04:43:51;24.65;;;14.13;;
70733;SDS011;58320;48.804;9.252;2022-12-20T04:46:22;22.33;;;12.97;;
70733;SDS011;58320;48.804;9.252;2022-12-20T04:48:49;21.70;;;12.65;;
70733;SDS011;58320;48.804;9.252;2022-12-20T04:51:15;19.98;;;10.93;;
70733;SDS011;58320;48.804;9.252;2022-12-20T04:53:42;21.52;;;12.05;;
70733;SDS011;58320;48.804;9.252;2022-12-20T04:56:12;18.42;;;11.02;;
70733;SDS011;58320;48.804;9.252;2022-12-20T04:58:50;20.87;;;11.47;;
70733;SDS011;58320;48.804;9.252;2022-12-20T05:01:17;18.17;;;10.35;;
70733;SDS011;58320;48.804;9.252;2022-12-20T05:03:44;19.10;;;10.27;;
70733;SDS011;58320;48.804;9.252;2022-12-20T05:06:10;18.25;;;9.05;;
70733;SDS011;58320;48.804;9.252;2022-12-20T05:08:37;16.02;;;8.95;;
70733;SDS011;58320;48.804;9.252;2022-12-20T05:11:03;18.07;;;8.93;;
70733;SDS011;58320;48.804;9.252;2022-12-20T05:13:30;14.30;;;8.50;;
70733;SDS011;58320;48.804;9.252;2022-12-20T05:15:57;14.32;;;8.00;;
70733;SDS011;58320;48.804;9.252;2022-12-20T05:18:23;12.68;;;7.97;;
70733;SDS011;58320;48.804;9.252;2022-12-20T05:20:50;14.48;;;8.13;;
70733;SDS011;58320;48.804;9.252;2022-12-20T05:23:39;13.63;;;7.93;;
70733;SDS011;58320;48.804;9.252;2022-12-20T05:26:24;14.10;;;7.45;;
70733;SDS011;58320;48.804;9.252;2022-12-20T05:28:54;10.70;;;6.68;;
70733;SDS011;58320;48.804;9.252;2022-12-20T05:31:20;12.45;;;6.70;;
70733;SDS011;58320;48.804;9.252;2022-12-20T05:33:45;12.13;;;6.87;;
70733;SDS011;58320;48.804;9.252;2022-12-20T05:36:11;13.73;;;7.43;;
70733;SDS011;58320;48.804;9.252;2022-12-20T05:38:37;11.32;;;6.50;;
70733;SDS011;58320;48.804;9.252;2022-12-20T05:41:03;12.50;;;6.77;;
70733;SDS011;58320;48.804;9.252;2022-12-20T05:43:30;11.18;;;6.55;;
70733;SDS011;58320;48.804;9.252;2022-12-20T05:45:56;11.85;;;7.07;;
70733;SDS011;58320;48.804;9.252;2022-12-20T05:48:22;10.60;;;6.43;;
70733;SDS011;58320;48.804;9.252;2022-12-20T05:50:48;11.00;;;6.20;;
70733;SDS011;58320;48.804;9.252;2022-12-20T05:53:14;11.38;;;6.60;;
70733;SDS011;58320;48.804;9.252;2022-12-20T05:55:46;12.18;;;7.00;;
70733;SDS011;58320;48.804;9.252;2022-12-20T05:58:15;12.40;;;6.77;;
70733;SDS011;58320;48.804;9.252;2022-12-20T06:00:41;12.52;;;6.35;;
70733;SDS011;58320;48.804;9.252;2022-12-20T06:03:09;12.18;;;6.88;;
70733;SDS011;58320;48.804;9.252;2022-12-20T06:05:36;9.95;;;5.82;;
70733;SDS011;58320;48.804;9.252;2022-12-20T06:08:04;12.40;;;6.93;;
70733;SDS011;58320;48.804;9.252;2022-12-20T06:10:31;11.13;;;6.13;;
70733;SDS011;58320;48.804;9.252;2022-12-20T06:12:58;12.02;;;6.43;;
70733;SDS011;58320;48.804;9.252;2022-12-20T06:15:26;11.02;;;6.47;;
70733;SDS011;58320;48.804;9.252;2022-12-20T06:17:52;12.00;;;6.47;;
70733;SDS011;58320;48.804;9.252;2022-12-20T06:20:18;10.77;;;6.10;;
70733;SDS011;58320;48.804;9.252;2022-12-20T06:22:43;14.25;;;7.30;;
70733;SDS011;58320;48.804;9.252;2022-12-20T06:25:09;12.10;;;6.63;;
70733;SDS011;58320;48.804;9.252;2022-12-20T06:27:36;12.23;;;6.93;;
70733;SDS011;58320;48.804;9.252;2022-12-20T06:30:03;11.60;;;6.30;;
70733;SDS011;58320;48.804;9.252;2022-12-20T06:32:30;11.15;;;6.65;;
70733;SDS011;58320;48.804;9.252;2022-12-20T06:34:56;10.65;;;5.75;;
70733;SDS011;58320;48.804;9.252;2022-12-20T06:37:21;10.57;;;6.07;;
70733;SDS011;58320;48.804;9.252;2022-12-20T06:39:47;12.18;;;6.10;;
70733;SDS011;58320;48.804;9.252;2022-12-20T06:42:13;10.83;;;6.40;;
70733;SDS011;58320;48.804;9.252;2022-12-20T06:44:39;12.23;;;6.47;;
70733;SDS011;58320;48.804;9.252;2022-12-20T06:47:05;11.23;;;6.57;;
70733;SDS011;58320;48.804;9.252;2022-12-20T06:49:30;11.93;;;6.47;;
70733;SDS011;58320;48.804;9.252;2022-12-20T06:51:56;10.00;;;6.25;;
70733;SDS011;58320;48.804;9.252;2022-12-20T06:54:22;9.90;;;6.07;;
70733;SDS011;58320;48.804;9.252;2022-12-20T06:56:48;11.40;;;5.87;;
70733;SDS011;58320;48.804;9.252;2022-12-20T06:59:13;10.55;;;6.50;;
70733;SDS011;58320;48.804;9.252;2022-12-20T07:01:39;11.77;;;6.10;;
70733;SDS011;58320;48.804;9.252;2022-12-20T07:04:05;10.35;;;5.70;;
70733;SDS011;58320;48.804;9.252;2022-12-20T07:06:31;12.45;;;6.40;;
70733;SDS011;58320;48.804;9.252;2022-12-20T07:08:57;11.20;;;6.97;;
70733;SDS011;58320;48.804;9.252;2022-12-20T07:11:22;11.93;;;6.63;;
70733;SDS011;58320;48.804;9.252;2022-12-20T07:13:48;11.57;;;6.70;;
70733;SDS011;58320;48.804;9.252;2022-12-20T07:16:19;10.23;;;6.00;;
70733;SDS011;58320;48.804;9.252;2022-12-20T07:18:48;11.93;;;7.57;;
70733;SDS011;58320;48.804;9.252;2022-12-20T07:21:15;12.65;;;6.55;;
70733;SDS011;58320;48.804;9.252;2022-12-20T07:23:41;11.27;;;6.25;;
70733;SDS011;58320;48.804;9.252;2022-12-20T07:26:07;10.93;;;5.87;;
70733;SDS011;58320;48.804;9.252;2022-12-20T07:28:34;10.43;;;6.18;;
70733;SDS011;58320;48.804;9.252;2022-12-20T07:31:00;13.93;;;7.25;;
70733;SDS011;58320;48.804;9.252;2022-12-20T07:33:26;11.30;;;7.15;;
70733;SDS011;58320;48.804;9.252;2022-12-20T07:35:59;10.57;;;6.07;;
70733;SDS011;58320;48.804;9.252;2022-12-20T07:38:30;12.18;;;5.88;;
70733;SDS011;58320;48.804;9.252;2022-12-20T07:40:57;10.30;;;5.85;;
70733;SDS011;58320;48.804;9.252;2022-12-20T07:43:23;9.38;;;5.75;;
70733;SDS011;58320;48.804;9.252;2022-12-20T07:45:52;10.57;;;6.00;;
70733;SDS011;58320;48.804;9.252;2022-12-20T07:48:20;8.10;;;4.70;;
70733;SDS011;58320;48.804;9.252;2022-12-20T07:50:46;10.65;;;5.47;;
70733;SDS011;58320;48.804;9.252;2022-12-20T07:53:11;8.30;;;4.75;;
70733;SDS011;58320;48.804;9.252;2022-12-20T07:55:38;9.03;;;4.70;;
70733;SDS011;58320;48.804;9.252;2022-12-20T07:58:06;9.35;;;4.60;;
70733;SDS011;58320;48.804;9.252;2022-12-20T08:00:35;7.72;;;4.72;;
70733;SDS011;58320;48.804;9.252;2022-12-20T08:05:43;8.73;;;4.55;;
70733;SDS011;58320;48.804;9.252;2022-12-20T08:08:15;8.63;;;4.70;;
70733;SDS011;58320;48.804;9.252;2022-12-20T08:10:41;8.45;;;5.03;;
70733;SDS011;58320;48.804;9.252;2022-12-20T08:13:07;7.95;;;4.65;;
70733;SDS011;58320;48.804;9.252;2022-12-20T08:15:34;8.68;;;4.78;;
70733;SDS011;58320;48.804;9.252;2022-12-20T08:18:01;9.05;;;5.15;;
70733;SDS011;58320;48.804;9.252;2022-12-20T08:20:27;9.40;;;5.20;;
70733;SDS011;58320;48.804;9.252;2022-12-20T08:22:53;9.63;;;5.57;;
70733;SDS011;58320;48.804;9.252;2022-12-20T08:25:19;8.88;;;4.85;;
70733;SDS011;58320;48.804;9.252;2022-12-20T08:27:45;9.70;;;4.90;;
70733;SDS011;58320;48.804;9.252;2022-12-20T08:30:12;9.55;;;4.93;;
70733;SDS011;58320;48.804;9.252;2022-12-20T08:32:38;9.93;;;5.35;;
70733;SDS011;58320;48.804;9.252;2022-12-20T08:35:04;10.07;;;4.88;;
70733;SDS011;58320;48.804;9.252;2022-12-20T08:37:30;9.47;;;5.20;;
70733;SDS011;58320;48.804;9.252;2022-12-20T08:39:56;10.00;;;5.30;;
70733;SDS011;58320;48.804;9.252;2022-12-20T08:42:22;11.23;;;5.57;;
70733;SDS011;58320;48.804;9.252;2022-12-20T08:44:48;10.00;;;4.77;;
70733;SDS011;58320;48.804;9.252;2022-12-20T08:47:13;11.18;;;5.57;;
70733;SDS011;58320;48.804;9.252;2022-12-20T08:49:39;11.80;;;6.27;;
70733;SDS011;58320;48.804;9.252;2022-12-20T08:52:05;13.38;;;6.38;;
70733;SDS011;58320;48.804;9.252;2022-12-20T08:54:31;14.70;;;8.52;;
70733;SDS011;58320;48.804;9.252;2022-12-20T08:56:57;14.40;;;8.67;;
70733;SDS011;58320;48.804;9.252;2022-12-20T08:59:22;14.00;;;8.38;;
70733;SDS011;58320;48.804;9.252;2022-12-20T09:01:48;12.45;;;7.65;;
70733;SDS011;58320;48.804;9.252;2022-12-20T09:04:14;15.40;;;7.00;;
70733;SDS011;58320;48.804;9.252;2022-12-20T09:06:40;14.90;;;8.02;;
70733;SDS011;58320;48.804;9.252;2022-12-20T09:09:06;17.58;;;10.35;;
70733;SDS011;58320;48.804;9.252;2022-12-20T09:11:31;21.97;;;11.30;;
70733;SDS011;58320;48.804;9.252;2022-12-20T09:13:58;18.02;;;9.93;;
70733;SDS011;58320;48.804;9.252;2022-12-20T09:16:25;19.05;;;10.50;;
70733;SDS011;58320;48.804;9.252;2022-12-20T09:18:55;18.60;;;10.63;;
70733;SDS011;58320;48.804;9.252;2022-12-20T09:21:23;16.63;;;9.50;;
70733;SDS011;58320;48.804;9.252;2022-12-20T09:23:50;14.85;;;9.40;;
70733;SDS011;58320;48.804;9.252;2022-12-20T09:26:18;13.50;;;7.57;;
70733;SDS011;58320;48.804;9.252;2022-12-20T09:28:45;10.27;;;5.93;;
70733;SDS011;58320;48.804;9.252;2022-12-20T09:31:15;8.83;;;5.23;;
70733;SDS011;58320;48.804;9.252;2022-12-20T09:33:44;10.50;;;4.90;;
70733;SDS011;58320;48.804;9.252;2022-12-20T09:36:11;8.57;;;4.80;;
70733;SDS011;58320;48.804;9.252;2022-12-20T09:38:41;8.43;;;4.50;;
70733;SDS011;58320;48.804;9.252;2022-12-20T09:41:14;7.70;;;4.18;;
70733;SDS011;58320;48.804;9.252;2022-12-20T09:43:59;7.90;;;4.33;;
70733;SDS011;58320;48.804;9.252;2022-12-20T09:46:42;7.63;;;4.13;;
70733;SDS011;58320;48.804;9.252;2022-12-20T09:49:14;8.23;;;4.32;;
70733;SDS011;58320;48.804;9.252;2022-12-20T09:54:36;8.70;;;4.40;;
70733;SDS011;58320;48.804;9.252;2022-12-20T10:00:47;8.57;;;3.95;;
70733;SDS011;58320;48.804;9.252;2022-12-20T10:03:22;8.07;;;4.35;;
70733;SDS011;58320;48.804;9.252;2022-12-20T10:05:59;9.18;;;4.70;;
70733;SDS011;58320;48.804;9.252;2022-12-20T10:17:50;8.88;;;4.93;;
70733;SDS011;58320;48.804;9.252;2022-12-20T10:20:53;8.68;;;5.10;;
70733;SDS011;58320;48.804;9.252;2022-12-20T10:26:27;6.90;;;4.00;;
70733;SDS011;58320;48.804;9.252;2022-12-20T10:28:55;8.60;;;4.88;;
70733;SDS011;58320;48.804;9.252;2022-12-20T10:31:21;8.38;;;4.55;;
70733;SDS011;58320;48.804;9.252;2022-12-20T10:33:47;6.38;;;4.20;;
70733;SDS011;58320;48.804;9.252;2022-12-20T10:36:21;11.17;;;4.73;;
70733;SDS011;58320;48.804;9.252;2022-12-20T10:38:59;9.35;;;4.60;;
70733;SDS011;58320;48.804;9.252;2022-12-20T10:41:28;10.70;;;4.07;;
70733;SDS011;58320;48.804;9.252;2022-12-20T10:43:58;8.70;;;4.10;;
70733;SDS011;58320;48.804;9.252;2022-12-20T10:47:02;7.72;;;4.20;;
70733;SDS011;58320;48.804;9.252;2022-12-20T10:49:30;7.57;;;3.80;;
70733;SDS011;58320;48.804;9.252;2022-12-20T10:57:02;9.65;;;5.28;;
70733;SDS011;58320;48.804;9.252;2022-12-20T10:59:53;10.07;;;6.40;;
70733;SDS011;58320;48.804;9.252;2022-12-20T11:02:30;11.03;;;6.60;;
70733;SDS011;58320;48.804;9.252;2022-12-20T11:07:32;13.82;;;6.53;;
70733;SDS011;58320;48.804;9.252;2022-12-20T11:10:01;13.52;;;6.80;;
70733;SDS011;58320;48.804;9.252;2022-12-20T11:12:54;11.68;;;6.00;;
70733;SDS011;58320;48.804;9.252;2022-12-20T11:15:30;12.67;;;5.47;;
70733;SDS011;58320;48.804;9.252;2022-12-20T11:34:54;8.38;;;5.25;;
70733;SDS011;58320;48.804;9.252;2022-12-20T11:37:45;9.00;;;5.20;;
70733;SDS011;58320;48.804;9.252;2022-12-20T11:40:42;10.13;;;5.18;;
70733;SDS011;58320;48.804;9.252;2022-12-20T11:54:11;8.27;;;4.53;;
70733;SDS011;58320;48.804;9.252;2022-12-20T11:56:51;11.38;;;5.35;;
70733;SDS011;58320;48.804;9.252;2022-12-20T11:59:29;8.52;;;5.15;;
70733;SDS011;58320;48.804;9.252;2022-12-20T12:02:14;8.38;;;5.07;;
70733;SDS011;58320;48.804;9.252;2022-12-20T12:05:04;10.23;;;4.73;;
70733;SDS011;58320;48.804;9.252;2022-12-20T12:07:45;15.88;;;5.47;;
70733;SDS011;58320;48.804;9.252;2022-12-20T12:10:22;9.40;;;6.05;;
70733;SDS011;58320;48.804;9.252;2022-12-20T12:15:30;15.77;;;8.27;;
70733;SDS011;58320;48.804;9.252;2022-12-20T12:23:16;15.90;;;9.57;;
70733;SDS011;58320;48.804;9.252;2022-12-20T12:25:50;15.82;;;8.82;;
70733;SDS011;58320;48.804;9.252;2022-12-20T12:28:17;14.10;;;9.02;;
70733;SDS011;58320;48.804;9.252;2022-12-20T12:30:51;10.00;;;5.93;;
70733;SDS011;58320;48.804;9.252;2022-12-20T12:33:27;9.18;;;4.65;;
70733;SDS011;58320;48.804;9.252;2022-12-20T12:47:24;12.13;;;6.47;;
70733;SDS011;58320;48.804;9.252;2022-12-20T12:50:02;13.80;;;7.90;;
70733;SDS011;58320;48.804;9.252;2022-12-20T12:52:51;11.23;;;6.18;;
70733;SDS011;58320;48.804;9.252;2022-12-20T13:00:48;10.68;;;5.70;;
70733;SDS011;58320;48.804;9.252;2022-12-20T13:11:30;8.33;;;4.30;;
70733;SDS011;58320;48.804;9.252;2022-12-20T13:19:39;10.55;;;3.95;;
70733;SDS011;58320;48.804;9.252;2022-12-20T13:24:52;6.60;;;3.50;;
70733;SDS011;58320;48.804;9.252;2022-12-20T13:29:54;8.60;;;4.60;;
70733;SDS011;58320;48.804;9.252;2022-12-20T13:46:41;7.60;;;4.28;;
70733;SDS011;58320;48.804;9.252;2022-12-20T13:54:51;6.28;;;3.80;;
70733;SDS011;58320;48.804;9.252;2022-12-20T13:57:31;7.40;;;3.90;;
70733;SDS011;58320;48.804;9.252;2022-12-20T14:00:12;9.55;;;4.90;;
70733;SDS011;58320;48.804;9.252;2022-12-20T14:02:47;7.70;;;4.17;;
70733;SDS011;58320;48.804;9.252;2022-12-20T14:05:32;7.50;;;4.32;;
70733;SDS011;58320;48.804;9.252;2022-12-20T14:08:08;8.68;;;5.32;;
70733;SDS011;58320;48.804;9.252;2022-12-20T14:10:46;11.00;;;5.53;;
70733;SDS011;58320;48.804;9.252;2022-12-20T14:13:20;9.52;;;4.63;;
70733;SDS011;58320;48.804;9.252;2022-12-20T14:15:49;7.80;;;4.00;;
70733;SDS011;58320;48.804;9.252;2022-12-20T14:18:16;10.63;;;4.40;;
70733;SDS011;58320;48.804;9.252;2022-12-20T14:20:50;9.85;;;5.22;;
70733;SDS011;58320;48.804;9.252;2022-12-20T14:23:19;9.90;;;5.20;;
70733;SDS011;58320;48.804;9.252;2022-12-20T14:25:55;10.25;;;5.15;;
70733;SDS011;58320;48.804;9.252;2022-12-20T14:36:34;9.18;;;5.45;;
70733;SDS011;58320;48.804;9.252;2022-12-20T14:42:12;9.53;;;4.67;;
70733;SDS011;58320;48.804;9.252;2022-12-20T14:44:38;9.63;;;5.70;;
70733;SDS011;58320;48.804;9.252;2022-12-20T14:47:26;11.80;;;6.20;;
70733;SDS011;58320;48.804;9.252;2022-12-20T14:49:59;14.32;;;7.13;;
70733;SDS011;58320;48.804;9.252;2022-12-20T14:52:33;18.17;;;10.35;;
70733;SDS011;58320;48.804;9.252;2022-12-20T14:55:05;18.43;;;10.77;;
70733;SDS011;58320;48.804;9.252;2022-12-20T15:08:10;12.07;;;6.87;;
70733;SDS011;58320;48.804;9.252;2022-12-20T15:10:56;12.20;;;6.70;;
70733;SDS011;58320;48.804;9.252;2022-12-20T15:13:42;9.52;;;6.75;;
70733;SDS011;58320;48.804;9.252;2022-12-20T15:16:16;10.82;;;5.78;;
70733;SDS011;58320;48.804;9.252;2022-12-20T15:18:44;13.90;;;6.18;;
70733;SDS011;58320;48.804;9.252;2022-12-20T15:21:12;11.03;;;5.77;;
70733;SDS011;58320;48.804;9.252;2022-12-20T15:23:53;8.43;;;5.15;;
70733;SDS011;58320;48.804;9.252;2022-12-20T15:26:22;13.02;;;6.38;;
70733;SDS011;58320;48.804;9.252;2022-12-20T15:28:50;10.23;;;5.10;;
70733;SDS011;58320;48.804;9.252;2022-12-20T15:31:17;10.38;;;5.78;;
70733;SDS011;58320;48.804;9.252;2022-12-20T15:33:45;11.33;;;5.90;;
70733;SDS011;58320;48.804;9.252;2022-12-20T15:36:16;13.15;;;8.00;;
70733;SDS011;58320;48.804;9.252;2022-12-20T15:38:47;15.25;;;9.82;;
70733;SDS011;58320;48.804;9.252;2022-12-20T15:41:27;18.08;;;10.25;;
70733;SDS011;58320;48.804;9.252;2022-12-20T15:43:57;17.67;;;10.05;;
70733;SDS011;58320;48.804;9.252;2022-12-20T15:46:29;17.53;;;9.03;;
70733;SDS011;58320;48.804;9.252;2022-12-20T15:48:56;15.93;;;7.97;;
70733;SDS011;58320;48.804;9.252;2022-12-20T15:51:32;14.90;;;7.88;;
70733;SDS011;58320;48.804;9.252;2022-12-20T15:54:02;13.20;;;6.85;;
70733;SDS011;58320;48.804;9.252;2022-12-20T15:56:32;11.30;;;6.88;;
70733;SDS011;58320;48.804;9.252;2022-12-20T15:58:57;13.77;;;6.33;;
70733;SDS011;58320;48.804;9.252;2022-12-20T16:01:27;12.15;;;6.38;;
70733;SDS011;58320;48.804;9.252;2022-12-20T16:04:04;10.55;;;6.60;;
70733;SDS011;58320;48.804;9.252;2022-12-20T16:06:31;11.73;;;7.00;;
70733;SDS011;58320;48.804;9.252;2022-12-20T16:08:58;11.00;;;6.20;;
70733;SDS011;58320;48.804;9.252;2022-12-20T16:11:27;11.45;;;6.15;;
70733;SDS011;58320;48.804;9.252;2022-12-20T16:13:55;11.93;;;6.85;;
70733;SDS011;58320;48.804;9.252;2022-12-20T16:16:24;12.90;;;8.27;;
70733;SDS011;58320;48.804;9.252;2022-12-20T16:18:53;15.55;;;8.73;;
70733;SDS011;58320;48.804;9.252;2022-12-20T16:21:20;11.50;;;7.37;;
70733;SDS011;58320;48.804;9.252;2022-12-20T16:23:48;13.68;;;7.25;;
70733;SDS011;58320;48.804;9.252;2022-12-20T16:26:15;15.45;;;9.50;;
70733;SDS011;58320;48.804;9.252;2022-12-20T16:28:44;12.60;;;7.38;;
70733;SDS011;58320;48.804;9.252;2022-12-20T16:31:31;13.20;;;7.32;;
70733;SDS011;58320;48.804;9.252;2022-12-20T16:34:03;10.10;;;6.97;;
70733;SDS011;58320;48.804;9.252;2022-12-20T16:36:31;13.65;;;6.60;;
70733;SDS011;58320;48.804;9.252;2022-12-20T16:38:57;11.30;;;7.20;;
70733;SDS011;58320;48.804;9.252;2022-12-20T16:41:28;12.82;;;6.55;;
70733;SDS011;58320;48.804;9.252;2022-12-20T16:43:57;11.18;;;6.53;;
70733;SDS011;58320;48.804;9.252;2022-12-20T16:46:26;12.17;;;5.93;;
70733;SDS011;58320;48.804;9.252;2022-12-20T16:48:55;9.93;;;5.40;;
70733;SDS011;58320;48.804;9.252;2022-12-20T16:51:33;9.85;;;6.20;;
70733;SDS011;58320;48.804;9.252;2022-12-20T16:54:05;11.10;;;5.90;;
70733;SDS011;58320;48.804;9.252;2022-12-20T16:56:38;10.68;;;6.00;;
70733;SDS011;58320;48.804;9.252;2022-12-20T16:59:04;10.13;;;6.07;;
70733;SDS011;58320;48.804;9.252;2022-12-20T17:01:35;11.00;;;6.03;;
70733;SDS011;58320;48.804;9.252;2022-12-20T17:04:03;10.70;;;6.65;;
70733;SDS011;58320;48.804;9.252;2022-12-20T17:06:30;10.70;;;6.28;;
70733;SDS011;58320;48.804;9.252;2022-12-20T17:08:57;10.25;;;6.55;;
70733;SDS011;58320;48.804;9.252;2022-12-20T17:11:23;11.47;;;6.07;;
70733;SDS011;58320;48.804;9.252;2022-12-20T17:13:53;10.63;;;6.25;;
70733;SDS011;58320;48.804;9.252;2022-12-20T17:16:20;10.07;;;5.82;;
70733;SDS011;58320;48.804;9.252;2022-12-20T17:18:48;11.82;;;6.47;;